createdAt,value
2023-01-19T00:01:22.138Z,-0.55
2023-01-19T00:03:52.580Z,-0.66
2023-01-19T00:06:23.791Z,-0.78
2023-01-19T00:08:53.832Z,-0.79
2023-01-19T00:11:24.174Z,-0.78
2023-01-19T00:13:57.911Z,-0.82
2023-01-19T00:16:28.365Z,-0.80
2023-01-19T00:18:58.762Z,-0.81
2023-01-19T00:21:29.190Z,-0.72
2023-01-19T00:23:59.447Z,-0.68
2023-01-19T00:26:29.820Z,-0.67
2023-01-19T00:29:03.132Z,-0.71
2023-01-19T00:31:34.141Z,-0.83
2023-01-19T00:34:04.793Z,-0.86
2023-01-19T00:36:35.562Z,-0.89
2023-01-19T00:39:05.941Z,-0.82
2023-01-19T00:41:48.409Z,-0.75
2023-01-19T00:44:21.351Z,-0.72
2023-01-19T00:46:51.652Z,-0.71
2023-01-19T00:49:21.984Z,-0.72
2023-01-19T00:51:52.586Z,-0.78
2023-01-19T00:54:22.863Z,-0.86
2023-01-19T00:56:53.886Z,-0.97
2023-01-19T00:59:27.557Z,-1.03
2023-01-19T01:01:58.447Z,-1.21
2023-01-19T01:04:28.958Z,-1.29
2023-01-19T01:06:59.161Z,-1.40
2023-01-19T01:09:29.632Z,-1.42
2023-01-19T01:12:00.056Z,-1.37
2023-01-19T01:14:33.194Z,-1.19
2023-01-19T01:17:03.497Z,-1.17
2023-01-19T01:19:33.854Z,-1.26
2023-01-19T01:22:04.139Z,-1.22
2023-01-19T01:24:34.827Z,-1.19
2023-01-19T01:27:05.404Z,-1.21
2023-01-19T01:29:40.142Z,-1.38
2023-01-19T01:32:10.770Z,-1.44
2023-01-19T01:34:41.200Z,-1.53
2023-01-19T01:37:11.884Z,-1.59
2023-01-19T01:39:42.258Z,-1.54
2023-01-19T01:42:20.656Z,-1.47
2023-01-19T01:44:56.697Z,-1.38
2023-01-19T01:47:34.334Z,-1.41
2023-01-19T01:50:12.318Z,-1.54
2023-01-19T01:53:06.431Z,-1.69
2023-01-19T01:55:41.474Z,-1.75
2023-01-19T01:58:13.340Z,-1.86
2023-01-19T02:00:58.841Z,-1.99
2023-01-19T02:03:30.220Z,-2.03
2023-01-19T02:06:02.685Z,-2.12
2023-01-19T02:08:53.388Z,-2.13
2023-01-19T02:11:36.383Z,-2.14
2023-01-19T02:14:08.198Z,-2.07
2023-01-19T02:16:42.127Z,-2.08
2023-01-19T02:19:19.259Z,-2.10
2023-01-19T02:21:58.213Z,-2.07
2023-01-19T02:24:31.360Z,-2.07
2023-01-19T02:27:03.148Z,-2.00
2023-01-19T02:29:33.816Z,-1.96
2023-01-19T02:32:05.830Z,-1.96
2023-01-19T02:34:36.507Z,-1.94
2023-01-19T02:37:11.530Z,-1.93
2023-01-19T02:39:50.801Z,-1.90
2023-01-19T02:42:26.513Z,-1.86
2023-01-19T02:45:00.095Z,-1.84
2023-01-19T02:47:30.509Z,-1.86
2023-01-19T02:50:02.025Z,-1.86
2023-01-19T02:52:32.632Z,-1.82
2023-01-19T02:55:19.971Z,-1.83
2023-01-19T02:58:00.381Z,-1.77
2023-01-19T03:00:41.488Z,-1.78
2023-01-19T03:03:31.903Z,-1.72
2023-01-19T03:06:09.463Z,-1.58
2023-01-19T03:08:50.380Z,-1.58
2023-01-19T03:11:23.825Z,-1.59
2023-01-19T03:13:57.884Z,-1.61
2023-01-19T03:16:35.549Z,-1.62
2023-01-19T03:19:12.724Z,-1.61
2023-01-19T03:21:48.805Z,-1.75
2023-01-19T03:24:22.609Z,-1.73
2023-01-19T03:27:00.613Z,-1.78
2023-01-19T03:29:35.653Z,-1.86
2023-01-19T03:32:12.379Z,-1.89
2023-01-19T03:34:45.219Z,-1.95
2023-01-19T03:37:17.643Z,-1.94
2023-01-19T03:39:48.087Z,-1.97
2023-01-19T03:42:21.832Z,-2.04
2023-01-19T03:44:53.749Z,-2.18
2023-01-19T03:47:25.039Z,-2.19
2023-01-19T03:49:55.911Z,-2.17
2023-01-19T03:52:34.415Z,-2.10
2023-01-19T03:55:07.318Z,-2.03
2023-01-19T03:57:40.675Z,-2.02
2023-01-19T04:00:13.732Z,-1.94
2023-01-19T04:02:44.000Z,-1.92
2023-01-19T04:05:14.529Z,-1.92
2023-01-19T04:07:44.762Z,-1.93
2023-01-19T04:10:16.163Z,-2.02
2023-01-19T04:12:49.400Z,-2.10
2023-01-19T04:15:20.446Z,-2.08
2023-01-19T04:17:51.043Z,-2.10
2023-01-19T04:20:21.827Z,-2.11
2023-01-19T04:22:52.457Z,-2.04
2023-01-19T04:25:22.831Z,-2.01
2023-01-19T04:27:58.472Z,-2.10
2023-01-19T04:30:29.215Z,-2.10
2023-01-19T04:33:02.385Z,-2.18
2023-01-19T04:35:34.367Z,-2.30
2023-01-19T04:38:04.679Z,-2.41
2023-01-19T04:40:34.909Z,-2.49
2023-01-19T04:43:07.894Z,-2.54
2023-01-19T04:45:38.188Z,-2.52
2023-01-19T04:48:09.462Z,-2.59
2023-01-19T04:50:39.458Z,-2.67
2023-01-19T04:53:09.815Z,-2.66
2023-01-19T04:55:41.509Z,-2.72
2023-01-19T04:58:14.422Z,-2.61
2023-01-19T05:00:44.697Z,-2.56
2023-01-19T05:03:15.175Z,-2.53
2023-01-19T05:05:45.581Z,-2.45
2023-01-19T05:08:16.405Z,-2.49
2023-01-19T05:10:46.754Z,-2.41
2023-01-19T05:13:19.709Z,-2.43
2023-01-19T05:15:50.525Z,-2.42
2023-01-19T05:18:21.207Z,-2.41
2023-01-19T05:20:51.471Z,-2.34
2023-01-19T05:23:21.866Z,-2.29
2023-01-19T05:25:52.139Z,-2.33
2023-01-19T05:28:25.026Z,-2.30
2023-01-19T05:30:55.773Z,-2.33
2023-01-19T05:33:27.777Z,-2.32
2023-01-19T05:35:58.211Z,-2.20
2023-01-19T05:38:35.177Z,-2.15
2023-01-19T05:41:06.312Z,-2.01
2023-01-19T05:43:39.373Z,-1.98
2023-01-19T05:46:09.960Z,-2.07
2023-01-19T05:48:40.338Z,-2.11
2023-01-19T05:51:10.659Z,-2.16
2023-01-19T05:53:40.989Z,-2.09
2023-01-19T05:56:13.385Z,-2.07
2023-01-19T05:58:46.357Z,-2.06
2023-01-19T06:01:16.636Z,-2.06
2023-01-19T06:03:48.854Z,-2.00
2023-01-19T06:06:19.437Z,-1.96
2023-01-19T06:08:50.039Z,-1.92
2023-01-19T06:11:21.092Z,-1.99
2023-01-19T06:13:54.633Z,-2.02
2023-01-19T06:16:25.038Z,-1.99
2023-01-19T06:18:56.010Z,-1.99
2023-01-19T06:21:26.399Z,-1.96
2023-01-19T06:23:56.831Z,-1.91
2023-01-19T06:26:27.099Z,-1.93
2023-01-19T06:29:00.067Z,-1.92
2023-01-19T06:31:30.399Z,-1.95
2023-01-19T06:34:00.718Z,-1.92
2023-01-19T06:36:31.225Z,-1.89
2023-01-19T06:39:03.405Z,-1.99
2023-01-19T06:41:33.626Z,-2.09
2023-01-19T06:44:06.930Z,-2.22
2023-01-19T06:46:37.851Z,-2.51
2023-01-19T06:49:08.605Z,-2.59
2023-01-19T06:51:39.105Z,-2.63
2023-01-19T06:54:09.469Z,-2.61
2023-01-19T06:56:39.764Z,-2.58
2023-01-19T06:59:13.331Z,-2.49
2023-01-19T07:01:43.927Z,-2.48
2023-01-19T07:04:15.313Z,-2.50
2023-01-19T07:06:45.307Z,-2.49
2023-01-19T07:09:17.148Z,-2.43
2023-01-19T07:11:47.451Z,-2.34
2023-01-19T07:14:20.927Z,-2.22
2023-01-19T07:16:51.269Z,-2.19
2023-01-19T07:19:21.528Z,-2.11
2023-01-19T07:21:51.830Z,-2.02
2023-01-19T07:24:22.131Z,-1.90
2023-01-19T07:26:52.404Z,-1.85
2023-01-19T07:29:25.354Z,-1.83
2023-01-19T07:31:57.047Z,-1.82
2023-01-19T07:34:27.607Z,-1.81
2023-01-19T07:36:59.188Z,-1.65
2023-01-19T07:39:30.843Z,-1.58
2023-01-19T07:42:01.319Z,-1.53
2023-01-19T07:44:37.400Z,-1.54
2023-01-19T07:47:11.345Z,-1.53
2023-01-19T07:49:41.894Z,-1.46
2023-01-19T07:52:12.438Z,-1.37
2023-01-19T07:54:42.813Z,-1.37
2023-01-19T07:57:13.342Z,-1.27
2023-01-19T07:59:46.247Z,-1.18
2023-01-19T08:02:17.412Z,-1.17
2023-01-19T08:04:47.584Z,-0.98
2023-01-19T08:07:17.947Z,-0.82
2023-01-19T08:09:48.238Z,-0.56
2023-01-19T08:12:18.952Z,-0.40
2023-01-19T08:14:51.924Z,-0.46
2023-01-19T08:17:22.378Z,-0.22
2023-01-19T08:19:52.688Z,-0.18
2023-01-19T08:22:22.947Z,-0.19
2023-01-19T08:24:53.555Z,-0.09
2023-01-19T08:27:24.390Z,0.26
2023-01-19T08:29:58.905Z,0.56
2023-01-19T08:32:29.300Z,0.56
2023-01-19T08:34:59.564Z,0.59
2023-01-19T08:37:30.021Z,0.53
2023-01-19T08:40:00.365Z,0.55
2023-01-19T08:42:33.675Z,0.66
2023-01-19T08:45:08.013Z,0.78
2023-01-19T08:47:38.382Z,0.71
2023-01-19T08:50:10.854Z,1.00
2023-01-19T08:52:41.219Z,1.22
2023-01-19T08:55:13.745Z,1.58
2023-01-19T08:57:44.095Z,1.91
2023-01-19T09:00:19.082Z,2.18
2023-01-19T09:02:49.742Z,2.34
2023-01-19T09:05:20.685Z,2.57
2023-01-19T09:07:51.828Z,2.57
2023-01-19T09:10:23.025Z,2.66
2023-01-19T09:12:53.592Z,2.84
2023-01-19T09:15:26.871Z,3.02
2023-01-19T09:17:57.316Z,3.16
2023-01-19T09:20:28.574Z,3.26
2023-01-19T09:22:58.694Z,3.26
2023-01-19T09:25:29.674Z,3.34
2023-01-19T09:28:02.650Z,3.20
2023-01-19T09:30:37.328Z,3.27
2023-01-19T09:33:10.888Z,3.48
2023-01-19T09:35:42.431Z,3.92
2023-01-19T09:38:13.354Z,4.75
2023-01-19T09:40:47.482Z,5.12
2023-01-19T09:43:27.397Z,5.09
2023-01-19T09:46:02.785Z,5.58
2023-01-19T09:48:50.536Z,6.10
2023-01-19T09:51:24.927Z,5.92
2023-01-19T09:54:09.723Z,5.91
2023-01-19T09:56:40.103Z,6.11
2023-01-19T09:59:25.593Z,6.39
2023-01-19T10:02:27.811Z,6.15
2023-01-19T10:05:04.132Z,5.52
2023-01-19T10:07:56.003Z,4.92
2023-01-19T10:10:29.596Z,4.57
2023-01-19T10:13:17.145Z,4.66
2023-01-19T10:16:04.190Z,4.85
2023-01-19T10:18:47.785Z,4.51
2023-01-19T10:21:22.984Z,4.88
2023-01-19T10:23:58.397Z,4.88
2023-01-19T10:26:33.473Z,5.42
2023-01-19T10:29:07.933Z,5.39
2023-01-19T10:31:42.180Z,5.36
2023-01-19T10:34:20.944Z,4.94
2023-01-19T10:37:00.317Z,4.60
2023-01-19T10:39:30.630Z,4.52
2023-01-19T10:42:07.803Z,4.31
2023-01-19T10:44:40.588Z,4.43
2023-01-19T10:47:20.743Z,4.39
2023-01-19T10:49:53.776Z,4.68
2023-01-19T10:52:32.794Z,4.87
2023-01-19T10:55:05.279Z,4.74
2023-01-19T10:57:39.507Z,5.07
2023-01-19T11:00:34.647Z,5.00
2023-01-19T11:03:05.669Z,4.77
2023-01-19T11:05:42.166Z,4.42
2023-01-19T11:08:27.272Z,4.30
2023-01-19T11:11:02.551Z,4.88
2023-01-19T11:13:33.151Z,5.20
2023-01-19T11:16:11.611Z,5.10
2023-01-19T11:18:44.145Z,4.60
2023-01-19T11:21:19.569Z,4.75
2023-01-19T11:23:53.089Z,5.06
2023-01-19T11:26:31.381Z,4.77
2023-01-19T11:29:04.707Z,5.56
2023-01-19T11:31:37.936Z,6.57
2023-01-19T11:34:25.960Z,7.41
2023-01-19T11:37:04.325Z,7.64
2023-01-19T11:39:48.728Z,8.19
2023-01-19T11:42:20.054Z,9.48
2023-01-19T11:45:01.259Z,9.77
2023-01-19T11:47:35.436Z,10.89
2023-01-19T11:50:14.855Z,11.25
2023-01-19T11:52:53.505Z,10.93
2023-01-19T11:55:31.139Z,11.35
2023-01-19T11:58:02.217Z,12.07
2023-01-19T12:00:40.073Z,12.46
2023-01-19T12:03:20.848Z,11.52
2023-01-19T12:05:54.699Z,10.65
2023-01-19T12:08:32.902Z,11.17
2023-01-19T12:11:05.314Z,10.54
2023-01-19T12:13:36.674Z,9.66
2023-01-19T12:16:13.779Z,8.27
2023-01-19T12:18:49.227Z,6.94
2023-01-19T12:21:20.531Z,6.76
2023-01-19T12:24:09.581Z,6.22
2023-01-19T12:26:41.672Z,5.73
2023-01-19T12:29:17.314Z,6.03
2023-01-19T12:31:49.900Z,5.92
2023-01-19T12:34:46.808Z,5.66
2023-01-19T12:37:41.221Z,4.71
2023-01-19T12:40:31.480Z,4.25
2023-01-19T12:43:04.618Z,4.23
2023-01-19T12:45:37.348Z,3.97
2023-01-19T12:48:11.742Z,4.69
2023-01-19T12:50:42.532Z,4.87
2023-01-19T12:53:22.757Z,6.71
2023-01-19T12:56:08.781Z,7.22
2023-01-19T12:58:39.389Z,7.53
2023-01-19T13:01:19.265Z,8.24
2023-01-19T13:04:03.794Z,8.97
2023-01-19T13:07:13.713Z,9.43
2023-01-19T13:09:44.111Z,10.47
2023-01-19T13:12:27.128Z,10.46
2023-01-19T13:15:30.624Z,10.39
2023-01-19T13:18:01.320Z,10.43
2023-01-19T13:20:44.459Z,10.26
2023-01-19T13:23:23.913Z,8.09
2023-01-19T13:26:02.373Z,6.62
2023-01-19T13:28:43.026Z,6.54
2023-01-19T13:31:15.277Z,5.52
2023-01-19T13:33:55.622Z,4.93
2023-01-19T13:36:32.512Z,4.34
2023-01-19T13:39:06.615Z,3.79
2023-01-19T13:41:42.144Z,3.36
2023-01-19T13:44:23.839Z,3.30
2023-01-19T13:46:54.864Z,3.10
2023-01-19T13:49:31.381Z,2.76
2023-01-19T13:52:17.078Z,2.60
2023-01-19T13:54:54.381Z,2.32
2023-01-19T13:57:27.464Z,2.42
2023-01-19T14:00:21.288Z,2.35
2023-01-19T14:03:03.179Z,2.51
2023-01-19T14:05:36.112Z,2.63
2023-01-19T14:08:18.155Z,2.31
2023-01-19T14:10:50.614Z,2.45
2023-01-19T14:13:23.415Z,2.31
2023-01-19T14:16:00.526Z,2.86
2023-01-19T14:18:32.932Z,3.44
2023-01-19T14:21:07.652Z,3.53
2023-01-19T14:23:50.975Z,3.18
2023-01-19T14:26:45.118Z,3.19
2023-01-19T14:29:26.896Z,3.15
2023-01-19T14:32:17.339Z,3.07
2023-01-19T14:34:50.349Z,3.15
2023-01-19T14:37:25.049Z,3.10
2023-01-19T14:39:59.975Z,3.17
2023-01-19T14:42:34.927Z,2.85
2023-01-19T14:45:11.144Z,2.42
2023-01-19T14:47:47.425Z,2.17
2023-01-19T14:50:27.556Z,1.95
2023-01-19T14:53:02.132Z,1.60
2023-01-19T14:55:38.349Z,1.41
2023-01-19T14:58:14.119Z,1.22
2023-01-19T15:00:45.263Z,1.31
2023-01-19T15:03:18.787Z,1.23
2023-01-19T15:05:50.248Z,1.08
2023-01-19T15:08:28.352Z,1.18
2023-01-19T15:10:59.244Z,1.16
2023-01-19T15:13:30.971Z,1.02
2023-01-19T15:16:03.313Z,0.99
2023-01-19T15:18:36.339Z,0.89
2023-01-19T15:21:06.919Z,0.87
2023-01-19T15:23:37.247Z,0.68
2023-01-19T15:26:08.867Z,0.64
2023-01-19T15:28:39.295Z,0.66
2023-01-19T15:31:09.783Z,0.74
2023-01-19T15:33:42.766Z,0.73
2023-01-19T15:36:17.969Z,0.71
2023-01-19T15:38:50.278Z,0.79
2023-01-19T15:41:27.077Z,0.73
2023-01-19T15:43:57.395Z,0.78
2023-01-19T15:46:28.667Z,0.72
2023-01-19T15:49:01.282Z,0.77
2023-01-19T15:51:31.946Z,0.74
2023-01-19T15:54:02.360Z,0.72
2023-01-19T15:56:34.317Z,0.73
2023-01-19T15:59:05.244Z,0.81
2023-01-19T16:01:36.257Z,0.80
2023-01-19T16:04:12.282Z,0.93
2023-01-19T16:06:42.510Z,0.88
2023-01-19T16:09:16.938Z,0.80
2023-01-19T16:11:47.725Z,0.77
2023-01-19T16:14:18.106Z,0.66
2023-01-19T16:16:48.452Z,0.75
2023-01-19T16:19:21.604Z,0.76
2023-01-19T16:21:51.941Z,0.83
2023-01-19T16:24:22.279Z,1.00
2023-01-19T16:26:52.699Z,0.94
2023-01-19T16:29:23.001Z,1.00
2023-01-19T16:31:53.395Z,1.10
2023-01-19T16:34:26.824Z,1.09
2023-01-19T16:36:57.874Z,1.10
2023-01-19T16:39:28.252Z,1.17
2023-01-19T16:41:58.535Z,1.16
2023-01-19T16:44:29.009Z,1.13
2023-01-19T16:46:59.391Z,1.10
2023-01-19T16:49:32.376Z,1.11
2023-01-19T16:52:03.967Z,1.10
2023-01-19T16:54:34.411Z,1.03
2023-01-19T16:57:04.736Z,0.94
2023-01-19T16:59:35.279Z,1.10
2023-01-19T17:02:05.989Z,1.12
2023-01-19T17:04:39.059Z,1.20
2023-01-19T17:07:09.446Z,1.22
2023-01-19T17:09:40.018Z,1.18
2023-01-19T17:12:12.625Z,1.10
2023-01-19T17:14:43.302Z,1.07
2023-01-19T17:17:13.954Z,1.11
2023-01-19T17:19:47.699Z,1.13
2023-01-19T17:22:17.970Z,1.21
2023-01-19T17:24:49.986Z,1.34
2023-01-19T17:27:20.303Z,1.31
2023-01-19T17:29:52.598Z,1.34
2023-01-19T17:32:22.928Z,1.45
2023-01-19T17:34:55.825Z,1.31
2023-01-19T17:37:26.091Z,1.33
2023-01-19T17:39:59.214Z,1.28
2023-01-19T17:42:29.567Z,1.39
2023-01-19T17:44:59.884Z,1.52
2023-01-19T17:47:30.188Z,1.51
2023-01-19T17:50:03.154Z,1.57
2023-01-19T17:52:33.526Z,1.61
2023-01-19T17:55:03.819Z,1.59
2023-01-19T17:57:34.416Z,1.61
2023-01-19T18:00:05.202Z,1.63
2023-01-19T18:02:42.788Z,1.68
2023-01-19T18:05:16.073Z,1.64
2023-01-19T18:07:46.445Z,1.73
2023-01-19T18:10:17.458Z,1.80
2023-01-19T18:12:47.831Z,1.78
2023-01-19T18:15:18.114Z,1.64
2023-01-19T18:17:48.454Z,1.65
2023-01-19T18:20:21.567Z,1.68
2023-01-19T18:22:51.869Z,1.79
2023-01-19T18:25:22.173Z,1.82
2023-01-19T18:27:52.511Z,1.76
2023-01-19T18:30:23.389Z,1.73
2023-01-19T18:32:54.391Z,1.71
2023-01-19T18:35:28.893Z,1.81
2023-01-19T18:37:59.834Z,1.79
2023-01-19T18:40:30.299Z,1.70
2023-01-19T18:43:00.806Z,1.73
2023-01-19T18:45:31.288Z,1.77
2023-01-19T18:48:03.579Z,1.77
2023-01-19T18:50:36.824Z,1.87
2023-01-19T18:53:07.188Z,1.85
2023-01-19T18:55:37.560Z,1.97
2023-01-19T18:58:08.878Z,1.87
2023-01-19T19:00:39.147Z,1.96
2023-01-19T19:03:10.485Z,1.92
2023-01-19T19:05:43.839Z,1.98
2023-01-19T19:08:14.323Z,1.90
2023-01-19T19:10:45.427Z,1.81
2023-01-19T19:13:16.350Z,1.76
2023-01-19T19:15:47.076Z,1.75
2023-01-19T19:18:17.669Z,1.70
2023-01-19T19:20:50.690Z,1.74
2023-01-19T19:23:21.013Z,1.64
2023-01-19T19:25:51.309Z,1.73
2023-01-19T19:28:21.706Z,1.77
2023-01-19T19:30:52.677Z,1.74
2023-01-19T19:33:23.139Z,1.74
2023-01-19T19:36:00.169Z,1.67
2023-01-19T19:38:31.136Z,1.73
2023-01-19T19:41:01.666Z,1.68
2023-01-19T19:43:35.077Z,1.68
2023-01-19T19:46:09.239Z,1.69
2023-01-19T19:48:40.542Z,1.64
2023-01-19T19:51:18.771Z,1.62
2023-01-19T19:53:51.446Z,1.71
2023-01-19T19:56:24.066Z,1.75
2023-01-19T19:58:57.116Z,1.73
2023-01-19T20:01:32.926Z,1.82
2023-01-19T20:04:09.681Z,1.80
2023-01-19T20:06:46.459Z,1.86
2023-01-19T20:09:18.211Z,1.92
2023-01-19T20:11:50.756Z,2.00
2023-01-19T20:14:22.556Z,2.11
2023-01-19T20:16:54.437Z,2.20
2023-01-19T20:19:24.825Z,2.22
2023-01-19T20:21:58.125Z,2.17
2023-01-19T20:24:28.493Z,2.11
2023-01-19T20:26:59.047Z,2.01
2023-01-19T20:29:29.448Z,2.00
2023-01-19T20:32:00.294Z,2.09
2023-01-19T20:34:33.948Z,2.15
2023-01-19T20:37:06.966Z,2.11
2023-01-19T20:39:37.452Z,2.05
2023-01-19T20:42:11.383Z,2.04
2023-01-19T20:44:41.980Z,1.99
2023-01-19T20:47:13.054Z,1.89
2023-01-19T20:49:43.719Z,1.88
2023-01-19T20:52:17.002Z,1.97
2023-01-19T20:54:47.397Z,2.01
2023-01-19T20:57:17.730Z,2.02
2023-01-19T20:59:48.158Z,1.93
2023-01-19T21:02:18.762Z,1.93
2023-01-19T21:04:49.320Z,1.94
2023-01-19T21:07:22.380Z,1.95
2023-01-19T21:09:52.978Z,1.92
2023-01-19T21:12:23.405Z,2.06
2023-01-19T21:14:53.852Z,2.20
2023-01-19T21:17:24.140Z,2.24
2023-01-19T21:19:54.631Z,2.21
2023-01-19T21:22:27.689Z,2.14
2023-01-19T21:24:58.018Z,2.10
2023-01-19T21:27:28.247Z,2.24
2023-01-19T21:29:59.881Z,2.27
2023-01-19T21:32:30.347Z,2.24
2023-01-19T21:35:00.866Z,2.32
2023-01-19T21:37:35.297Z,2.35
2023-01-19T21:40:05.907Z,2.37
2023-01-19T21:42:36.342Z,2.22
2023-01-19T21:45:07.542Z,2.22
2023-01-19T21:47:38.215Z,2.13
2023-01-19T21:50:09.363Z,2.09
2023-01-19T21:52:42.409Z,2.22
2023-01-19T21:55:13.702Z,2.18
2023-01-19T21:57:44.289Z,2.14
2023-01-19T22:00:15.338Z,2.14
2023-01-19T22:02:58.519Z,2.20
2023-01-19T22:05:36.196Z,2.39
2023-01-19T22:08:09.679Z,2.52
2023-01-19T22:10:40.831Z,2.43
2023-01-19T22:13:11.568Z,2.41
2023-01-19T22:15:43.900Z,2.41
2023-01-19T22:18:16.305Z,2.30
2023-01-19T22:20:46.871Z,2.44
2023-01-19T22:23:19.966Z,2.43
2023-01-19T22:25:52.001Z,2.42
2023-01-19T22:28:22.512Z,2.35
2023-01-19T22:30:52.979Z,2.51
2023-01-19T22:33:23.487Z,2.54
2023-01-19T22:35:53.837Z,2.52
2023-01-19T22:38:26.906Z,2.57
2023-01-19T22:40:57.816Z,2.63
2023-01-19T22:43:28.182Z,2.55
2023-01-19T22:45:59.216Z,2.51
2023-01-19T22:48:30.003Z,2.54
2023-01-19T22:51:01.036Z,2.59
2023-01-19T22:53:37.348Z,2.51
2023-01-19T22:56:17.879Z,2.51
2023-01-19T22:58:49.585Z,2.43
2023-01-19T23:01:22.882Z,2.47
2023-01-19T23:03:53.607Z,2.48
2023-01-19T23:06:27.095Z,2.39
2023-01-19T23:09:02.553Z,2.44
2023-01-19T23:11:36.586Z,2.40
2023-01-19T23:14:07.536Z,2.47
2023-01-19T23:16:38.682Z,2.51
2023-01-19T23:19:09.262Z,2.45
2023-01-19T23:21:39.697Z,2.54
2023-01-19T23:24:13.846Z,2.48
2023-01-19T23:26:44.274Z,2.46
2023-01-19T23:29:17.561Z,2.36
2023-01-19T23:31:50.636Z,2.22
2023-01-19T23:34:21.502Z,2.21
2023-01-19T23:36:51.846Z,2.15
2023-01-19T23:39:25.539Z,2.11
2023-01-19T23:41:55.895Z,2.14
2023-01-19T23:44:26.194Z,2.17
2023-01-19T23:46:57.929Z,2.05
2023-01-19T23:52:14.247Z,2.14
2023-01-19T23:54:50.191Z,2.06
2023-01-19T23:57:20.562Z,1.98
2023-01-19T23:59:50.874Z,1.96
